Time;durP1;ratioP1;P1;durP2;ratioP2;P2;SDS_P1;SDS_P2;PMS_P1;PMS_P2;Temp;Humidity;BMP_temperature;BMP_pressure;BME280_temperature;BME280_humidity;BME280_pressure;Samples;Min_cycle;Max_cycle;Signal;HPM_P1;HPM_P2
2022/07/13 04:17:19;;;;;;;2.50;1.73;;;;;;;17.05;53.56;100723.91;5557482;32;208080;-89
2022/07/13 04:20:24;;;;;;;2.60;1.73;;;;;;;17.05;53.50;100731.94;5544784;32;33573;-88
2022/07/13 04:23:29;;;;;;;5.70;1.85;;;;;;;17.09;53.25;100720.00;5545217;32;34688;-89
2022/07/13 04:26:33;;;;;;;3.03;1.67;;;;;;;17.17;53.17;100717.66;5544379;32;33981;-87
2022/07/13 04:29:35;;;;;;;3.50;1.80;;;;;;;17.28;52.94;100713.31;5543902;32;33460;-88
2022/07/13 04:32:39;;;;;;;5.07;1.83;;;;;;;17.56;51.83;100717.53;5543759;32;33719;-88
2022/07/13 04:35:42;;;;;;;2.33;1.75;;;;;;;17.46;52.14;100717.34;5543905;32;34026;-87
2022/07/13 04:38:45;;;;;;;4.70;1.92;;;;;;;17.46;51.96;100730.75;5544435;32;33607;-87
2022/07/13 04:41:47;;;;;;;6.32;1.60;;;;;;;17.58;51.59;100729.00;5542769;32;33598;-87
2022/07/13 04:44:50;;;;;;;2.00;1.80;;;;;;;17.82;51.24;100725.47;5544106;32;34539;-87
2022/07/13 04:47:53;;;;;;;4.00;1.80;;;;;;;17.70;51.32;100727.22;5544089;32;34265;-87
2022/07/13 04:50:57;;;;;;;1.65;1.50;;;;;;;17.71;51.22;100738.81;5544203;32;33736;-86
2022/07/13 04:54:00;;;;;;;1.92;1.40;;;;;;;17.77;51.26;100733.84;5546202;32;33996;-87
2022/07/13 04:57:03;;;;;;;2.42;2.03;;;;;;;17.81;51.30;100728.25;5544437;32;34743;-86
2022/07/13 05:00:07;;;;;;;2.03;1.48;;;;;;;17.80;51.27;100735.44;5545697;32;33914;-87
2022/07/13 05:03:10;;;;;;;4.37;1.67;;;;;;;17.89;51.30;100732.06;5544050;32;33671;-87
2022/07/13 05:06:14;;;;;;;2.85;1.60;;;;;;;17.99;50.90;100732.22;5549640;32;33025;-85
2022/07/13 05:09:17;;;;;;;1.65;1.52;;;;;;;18.16;50.45;100741.72;5548186;32;33388;-87
2022/07/13 05:12:20;;;;;;;1.90;1.48;;;;;;;18.27;49.96;100732.00;5550788;32;34361;-86
2022/07/13 05:15:23;;;;;;;1.60;1.50;;;;;;;18.39;49.55;100736.41;5545702;32;34074;-87
2022/07/13 05:18:26;;;;;;;2.95;1.50;;;;;;;18.60;49.18;100735.72;5544522;32;34669;-88
2022/07/13 05:21:30;;;;;;;8.60;1.67;;;;;;;19.29;47.74;100733.03;5545253;32;32784;-88
2022/07/13 05:24:33;;;;;;;2.80;1.40;;;;;;;19.57;46.51;100731.66;5550081;32;33828;-89
2022/07/13 06:09:58;;;;;;;5.35;1.35;;;;;;;29.55;25.94;100734.53;3017649;26;20110;-87
2022/07/13 06:13:01;;;;;;;4.40;1.40;;;;;;;30.86;24.85;100736.25;5511489;32;33786;-86
2022/07/13 06:16:04;;;;;;;8.80;1.30;;;;;;;32.21;23.20;100734.72;5512947;32;33819;-87
2022/07/13 06:19:07;;;;;;;3.33;1.40;;;;;;;32.61;22.74;100739.34;5500187;32;34450;-86
2022/07/13 06:22:10;;;;;;;3.95;1.20;;;;;;;33.41;22.29;100742.00;5515224;32;34251;-85
2022/07/13 06:25:13;;;;;;;6.62;1.40;;;;;;;34.61;20.98;100739.44;5512923;32;33598;-85
2022/07/13 06:28:16;;;;;;;5.57;1.40;;;;;;;32.61;22.95;100739.34;5497720;32;32466;-91
2022/07/13 06:31:19;;;;;;;3.90;1.15;;;;;;;36.07;19.24;100735.16;5511359;32;34374;-91
2022/07/13 06:34:23;;;;;;;6.55;1.52;;;;;;;35.85;19.11;100728.28;5514781;32;34053;-91
2022/07/13 06:37:41;;;;;;;6.05;1.48;;;;;;;34.64;20.54;100736.22;5485772;32;33465;-86
2022/07/13 06:40:49;;;;;;;8.90;1.35;;;;;;;33.71;21.89;100739.53;5511455;32;33842;-85
2022/07/13 06:43:52;;;;;;;8.77;1.27;;;;;;;30.44;24.71;100738.91;5511071;32;34546;-86
2022/07/13 06:46:59;;;;;;;5.87;1.30;;;;;;;30.89;24.44;100749.53;5510816;32;35383;-86
2022/07/13 06:50:02;;;;;;;7.22;1.48;;;;;;;28.83;27.49;100742.41;5517426;32;33564;-87
2022/07/13 06:53:05;;;;;;;4.03;1.42;;;;;;;28.34;29.29;100749.22;5522515;32;34128;-86
2022/07/13 06:56:08;;;;;;;4.75;1.67;;;;;;;27.71;29.26;100753.78;5510728;32;34411;-86
2022/07/13 06:59:11;;;;;;;3.17;0.98;;;;;;;27.33;29.68;100759.09;5511351;32;33582;-86
2022/07/13 07:02:14;;;;;;;4.95;1.55;;;;;;;28.77;27.34;100754.91;5511396;32;33747;-87
2022/07/13 07:05:16;;;;;;;4.05;1.12;;;;;;;28.16;28.44;100753.09;5510706;32;33818;-86
2022/07/13 07:08:19;;;;;;;8.18;1.40;;;;;;;27.57;29.45;100749.94;5510731;32;34477;-87
2022/07/13 07:11:22;;;;;;;2.90;1.30;;;;;;;27.90;29.46;100745.34;5520650;32;33722;-86
2022/07/13 07:14:25;;;;;;;4.12;1.92;;;;;;;27.17;30.15;100740.97;5496736;32;32837;-85
2022/07/13 07:17:28;;;;;;;4.28;1.60;;;;;;;26.84;30.87;100746.50;5509970;32;34943;-86
2022/07/13 07:20:31;;;;;;;6.45;1.50;;;;;;;27.05;31.07;100748.66;5511160;32;33477;-86
2022/07/13 07:23:33;;;;;;;5.30;1.80;;;;;;;27.11;31.00;100741.69;5510764;32;33685;-86
2022/07/13 07:26:36;;;;;;;5.90;1.67;;;;;;;28.07;29.99;100732.41;5510384;32;34072;-86
2022/07/13 07:29:39;;;;;;;14.73;1.90;;;;;;;27.97;29.71;100727.22;5510553;32;33800;-86
2022/07/13 07:32:42;;;;;;;5.28;1.37;;;;;;;26.80;31.59;100729.66;5511010;32;33849;-85
2022/07/13 07:35:45;;;;;;;8.45;2.05;;;;;;;26.64;31.30;100722.41;5510113;32;34025;-85
2022/07/13 07:38:48;;;;;;;6.25;1.67;;;;;;;27.00;31.22;100724.69;5514097;32;34360;-87
2022/07/13 07:41:51;;;;;;;9.48;1.50;;;;;;;26.85;31.55;100715.56;5509852;32;34846;-85
2022/07/13 07:44:53;;;;;;;9.63;1.67;;;;;;;27.38;31.08;100713.12;5510184;32;34510;-84
2022/07/13 07:47:56;;;;;;;3.12;1.67;;;;;;;27.68;30.70;100721.47;5511967;32;34619;-86
2022/07/13 07:50:59;;;;;;;9.30;1.45;;;;;;;27.91;30.83;100717.88;5513115;32;33917;-85
2022/07/13 07:54:01;;;;;;;12.30;2.00;;;;;;;27.73;30.81;100720.91;5503378;32;33325;-86
2022/07/13 07:57:04;;;;;;;8.77;1.45;;;;;;;28.04;29.90;100721.84;5516724;32;34888;-85
2022/07/13 08:00:08;;;;;;;3.58;1.58;;;;;;;28.40;29.31;100731.28;5509700;32;34316;-85
2022/07/13 08:03:13;;;;;;;2.78;1.40;;;;;;;27.69;30.72;100725.03;5509425;32;33831;-85
2022/07/13 08:06:16;;;;;;;2.42;1.40;;;;;;;28.26;29.47;100722.91;5511947;32;33952;-86
2022/07/13 08:09:19;;;;;;;4.03;1.40;;;;;;;28.19;29.88;100722.75;5509337;32;33889;-86
2022/07/13 08:12:22;;;;;;;6.53;1.67;;;;;;;27.36;31.14;100720.62;5508924;32;34587;-86
2022/07/13 08:15:26;;;;;;;4.32;1.27;;;;;;;29.05;29.32;100718.78;5494937;32;32407;-86
2022/07/13 08:18:29;;;;;;;2.87;1.60;;;;;;;29.95;28.09;100709.47;5510565;32;34237;-87
2022/07/13 08:21:51;;;;;;;1.75;1.27;;;;;;;30.98;26.54;100712.72;5508276;32;34544;-89
2022/07/13 08:24:54;;;;;;;1.50;1.40;;;;;;;29.96;27.27;100716.62;5508942;32;34550;-90
2022/07/13 08:27:58;;;;;;;4.00;1.77;;;;;;;30.86;26.89;100701.50;5508395;32;34400;-90
2022/07/13 08:31:01;;;;;;;2.45;1.20;;;;;;;31.26;26.45;100710.94;5495466;32;33766;-90
2022/07/13 08:40:46;;;;;;;13.85;1.80;;;;;;;30.38;27.26;100708.53;5509075;32;33709;-86
2022/07/13 08:43:49;;;;;;;4.93;1.35;;;;;;;31.80;25.76;100706.41;5509602;32;33865;-86
2022/07/13 08:46:51;;;;;;;3.80;1.60;;;;;;;32.46;24.36;100706.62;5509274;32;33884;-87
2022/07/13 08:49:58;;;;;;;5.57;1.50;;;;;;;32.71;24.75;100700.44;5507991;32;34064;-86
2022/07/13 08:53:05;;;;;;;2.95;1.10;;;;;;;32.77;24.04;100702.31;5494695;32;32508;-87
2022/07/13 08:56:08;;;;;;;1.52;1.30;;;;;;;33.05;23.87;100697.59;5508108;32;33864;-85
2022/07/13 08:59:12;;;;;;;2.87;1.65;;;;;;;32.94;24.01;100696.34;5494201;32;32541;-85
2022/07/13 09:02:15;;;;;;;5.30;1.60;;;;;;;33.71;23.60;100690.03;5495250;32;33563;-85
2022/07/13 09:05:19;;;;;;;11.48;1.50;;;;;;;33.79;23.56;100677.06;5497389;32;32502;-87
2022/07/13 09:08:22;;;;;;;21.55;1.83;;;;;;;34.21;22.96;100662.75;5510565;32;33936;-86
2022/07/13 09:11:24;;;;;;;4.93;1.42;;;;;;;31.40;25.13;100663.34;5510580;32;34000;-86
2022/07/13 09:14:27;;;;;;;7.07;1.62;;;;;;;32.71;23.99;100672.97;5513556;32;33875;-86
2022/07/13 09:17:43;;;;;;;6.35;1.48;;;;;;;33.40;23.30;100663.34;5502227;32;32290;-87
2022/07/13 09:20:47;;;;;;;6.53;1.77;;;;;;;33.32;23.15;100659.81;5509435;32;32810;-86
2022/07/13 09:24:03;;;;;;;17.12;1.70;;;;;;;32.50;24.33;100669.47;5514220;32;35020;-87
2022/07/13 09:27:07;;;;;;;5.82;1.55;;;;;;;33.23;23.26;100666.63;5511142;32;34255;-86
2022/07/13 09:30:21;;;;;;;2.28;1.65;;;;;;;31.68;24.87;100665.03;5518427;32;33884;-87
2022/07/13 09:33:34;;;;;;;5.35;1.65;;;;;;;33.28;22.89;100668.72;5511307;32;34403;-86
2022/07/13 09:36:37;;;;;;;2.08;1.48;;;;;;;33.51;22.70;100659.06;5511177;32;34273;-91
2022/07/13 09:40:08;;;;;;;8.18;1.65;;;;;;;33.36;23.07;100665.72;5510277;32;34046;-91
2022/07/13 09:46:32;;;;;;;4.32;1.58;;;;;;;32.32;24.10;100672.03;5510336;32;33985;-86
2022/07/13 09:49:44;;;;;;;6.87;1.45;;;;;;;33.37;22.66;100661.06;5510420;32;34818;-86
2022/07/13 09:52:48;;;;;;;4.60;1.55;;;;;;;34.85;21.25;100664.37;5510965;32;33775;-87
2022/07/13 09:55:52;;;;;;;6.75;1.77;;;;;;;34.63;21.63;100671.19;5517802;32;33974;-86
2022/07/13 09:58:58;;;;;;;4.68;1.30;;;;;;;34.51;21.34;100662.84;5512467;32;33724;-86
2022/07/13 10:02:02;;;;;;;16.70;2.17;;;;;;;34.32;21.52;100659.22;5509999;32;33812;-86
2022/07/13 10:05:06;;;;;;;10.13;2.10;;;;;;;34.28;21.21;100666.25;5496037;32;34456;-86
2022/07/13 10:08:09;;;;;;;4.43;2.30;;;;;;;33.09;22.50;100679.62;5509849;32;34242;-86
2022/07/13 10:11:13;;;;;;;2.60;1.40;;;;;;;31.16;24.92;100671.06;5510323;32;33831;-86
2022/07/13 10:14:17;;;;;;;4.60;1.58;;;;;;;31.73;24.25;100673.50;5511165;32;33753;-86
2022/07/13 10:17:22;;;;;;;4.87;1.60;;;;;;;31.25;24.36;100665.38;5497662;32;32022;-85
2022/07/13 10:20:26;;;;;;;9.15;1.55;;;;;;;31.85;24.21;100661.94;5498527;32;32366;-85
2022/07/13 10:23:38;;;;;;;7.00;1.33;;;;;;;31.46;24.23;100664.41;5511444;32;34622;-86
2022/07/13 10:26:48;;;;;;;5.05;1.70;;;;;;;32.44;22.92;100653.00;5511272;32;35009;-88
2022/07/13 10:29:59;;;;;;;5.07;1.10;;;;;;;33.14;21.62;100654.22;5510706;32;33675;-86
2022/07/13 10:33:24;;;;;;;2.45;1.17;;;;;;;34.45;20.27;100644.50;5496148;32;32827;-86
2022/07/13 10:37:00;;;;;;;1.85;1.48;;;;;;;34.76;20.12;100644.56;5496136;32;32697;-92
2022/07/13 10:40:16;;;;;;;1.58;1.30;;;;;;;35.39;20.00;100633.31;5478806;32;34105;-87
2022/07/13 10:43:19;;;;;;;4.40;1.50;;;;;;;34.94;20.37;100643.69;5511812;32;34902;-86
2022/07/13 10:46:44;;;;;;;4.87;1.75;;;;;;;33.20;22.40;100637.69;5510489;32;33985;-88
2022/07/13 10:49:47;;;;;;;8.80;1.40;;;;;;;32.95;21.87;100643.09;5511900;32;33501;-87
2022/07/13 10:52:50;;;;;;;4.53;1.48;;;;;;;32.24;22.57;100640.97;5526166;32;33777;-89
2022/07/13 10:56:20;;;;;;;1.60;1.17;;;;;;;32.38;22.70;100646.47;5515588;32;33970;-87
2022/07/13 10:59:42;;;;;;;;;;;;;;;31.78;23.25;100634.47;5500243;32;33031;-86
2022/07/13 11:02:50;;;;;;;4.70;1.12;;;;;;;32.07;22.64;100639.78;5513155;32;34364;-87
2022/07/13 11:06:17;;;;;;;2.83;1.35;;;;;;;30.69;24.02;100638.03;5513172;32;34380;-87
2022/07/13 11:09:21;;;;;;;3.20;1.55;;;;;;;31.09;23.56;100639.19;5511830;32;33948;-91
2022/07/13 11:12:24;;;;;;;4.12;1.05;;;;;;;32.23;22.39;100630.25;5513269;32;33993;-91
2022/07/13 11:15:45;;;;;;;2.70;1.42;;;;;;;34.40;19.80;100614.88;5517793;32;34371;-88
2022/07/13 11:18:53;;;;;;;4.72;1.23;;;;;;;32.85;20.84;100634.47;5513761;32;34220;-86
2022/07/13 11:22:11;;;;;;;3.47;1.20;;;;;;;30.74;23.18;100629.19;5497138;32;32233;-86
2022/07/13 11:25:19;;;;;;;0.95;0.90;;;;;;;30.01;23.77;100616.75;5509788;32;34516;-86
2022/07/13 11:28:33;;;;;;;8.55;1.50;;;;;;;30.33;22.73;100606.25;5498984;32;32747;-87
2022/07/13 11:31:36;;;;;;;11.12;1.50;;;;;;;31.18;22.50;100605.94;5517345;32;33991;-86
2022/07/13 11:34:41;;;;;;;2.35;1.10;;;;;;;31.00;22.12;100605.69;5515916;32;34271;-87
2022/07/13 11:37:44;;;;;;;3.40;1.12;;;;;;;30.64;22.94;100593.97;5509198;32;33246;-86
2022/07/13 11:40:47;;;;;;;7.82;1.27;;;;;;;31.40;22.39;100588.50;5506169;32;33071;-87
2022/07/13 11:43:51;;;;;;;6.87;1.70;;;;;;;31.79;21.80;100591.44;5513710;32;34876;-86
2022/07/13 11:46:55;;;;;;;10.05;1.27;;;;;;;31.87;21.81;100591.25;5513393;32;33569;-87
2022/07/13 11:50:07;;;;;;;6.90;1.50;;;;;;;31.44;22.24;100598.84;5521464;32;33862;-86
2022/07/13 11:53:28;;;;;;;3.17;1.10;;;;;;;30.94;22.89;100596.41;5515585;32;34362;-86
2022/07/13 11:56:31;;;;;;;5.55;1.33;;;;;;;31.48;23.37;100582.81;5511891;32;34349;-87
2022/07/13 11:59:39;;;;;;;7.70;1.30;;;;;;;31.56;23.07;100577.13;5511573;32;33829;-87
2022/07/13 12:02:41;;;;;;;8.73;1.25;;;;;;;31.61;22.75;100581.97;5510557;32;34690;-86
2022/07/13 12:05:44;;;;;;;6.35;1.52;;;;;;;31.31;23.67;100571.41;5510381;32;34056;-86
2022/07/13 12:08:47;;;;;;;2.30;1.20;;;;;;;31.02;23.87;100579.78;5510131;32;34934;-87
2022/07/13 12:11:50;;;;;;;2.47;1.20;;;;;;;31.44;23.33;100579.66;5496247;32;32947;-86
